Terminal Aerodrome Forecast
Issued by NWS Atlanta, GA

Home | Current Version | Previous Version | Text Only | Print | Product List | Glossary On
Versions: 1 2 3 4 5 6 7 8 9 10 11 12 13 14 15 16 17 18 19 20 21 22 23 24 25 26 27 28 29 30 31 32 33 34 35 36 37
523
FTUS42 KFFC 060418 AAB
TAFATL
TAF AMD
KATL 060418Z 0604/0706 10014G20KT P6SM OVC004
     FM060900 08012KT 3SM RA BR OVC004
     FM061400 15008KT 3SM -RA BKN006
     FM061700 25012G20KT 5SM -SHRA SCT004 BKN015
     FM062300 31012KT P6SM BKN020=

USA.gov is the U.S. government's official web portal to all federal, state and local government web resources and services.